Accueil
METAR-TAF:

METAR-TAF

Aéroports :

Aéroport d'Annecy Haute-Savoie Mont-Blanc

Annecy, France

latitude: 45-55-45N, longitude: 006-05-56E, altitude: 463 m

Observation

Le bulletin a été fait il y a 16 minutes, à 00:30 UTC
Vent calme
Température 7°C
Humidité 76%
Pression 1027 hPa
Visibilité 10 km ou plus
Ciel couvert à une hauteur de 8000 ft

METAR: LFLP 240030Z AUTO 00000KT 9999 OVC080 07/03 Q1027

Heure: 02:46 (00:46 UTC)

Prévision

Le bulletin a été fait il y a 10 heures et 46 minutes, à 14:00 UTC
Prévision valable du 23 à 15 UTC au 24 à 15 UTC
Vent 12 kt de nord/nord-ouest
Visibilité 10 km ou plus
pas de nuages en-dessous de 1500 mètres et pas de cumulonimbus.
Evoluant progressivement
du 23 à 21 UTC au 23 à 23 UTC
Vent 2 kt de direction variable
Evoluant progressivement
du 24 à 09 UTC au 24 à 11 UTC
Vent 12 kt de nord/nord-est

TAF: LFLP 231400Z 2315/2415 34012KT CAVOK BECMG 2321/2323 VRB02KT BECMG 2409/2411 02012KT

Observations et prévisions météorologiques de plus de 4000 aéroports (messages METAR et TAF).

Les stations disponibles sont représentées par des disques jaunes et rouges sur la carte.

Passer la souris dessus pour voir le nom de la station.

Cliquer dessus pour voir les observations et prévisions météorologiques.

Pour changer de carte: cliquez sur les boutons verts avec une croix noire pour zoomer, sur le bouton vert avec un tiret pour effectuer un zoom arrière, ou sur les flèches vertes pour les cartes adjacentes.


METAR-TAF: